sensor_id;sensor_type;location;lat;lon;timestamp;P1;durP1;ratioP1;P2;durP2;ratioP2
73359;SDS011;63092;43.582;19.528;2023-02-28T00:01:09;19.02;;;9.07;;
73359;SDS011;63092;43.582;19.528;2023-02-28T00:03:37;17.45;;;8.70;;
73359;SDS011;63092;43.582;19.528;2023-02-28T00:06:03;20.85;;;9.48;;
73359;SDS011;63092;43.582;19.528;2023-02-28T00:08:30;18.35;;;8.60;;
73359;SDS011;63092;43.582;19.528;2023-02-28T00:11:00;26.45;;;12.57;;
73359;SDS011;63092;43.582;19.528;2023-02-28T00:13:28;20.90;;;10.32;;
73359;SDS011;63092;43.582;19.528;2023-02-28T00:16:00;24.83;;;12.35;;
73359;SDS011;63092;43.582;19.528;2023-02-28T00:18:27;59.58;;;25.58;;
73359;SDS011;63092;43.582;19.528;2023-02-28T00:20:53;22.52;;;11.30;;
73359;SDS011;63092;43.582;19.528;2023-02-28T00:23:18;19.70;;;9.85;;
73359;SDS011;63092;43.582;19.528;2023-02-28T00:25:44;27.88;;;12.38;;
73359;SDS011;63092;43.582;19.528;2023-02-28T00:28:10;30.92;;;14.70;;
73359;SDS011;63092;43.582;19.528;2023-02-28T00:30:35;27.75;;;14.52;;
73359;SDS011;63092;43.582;19.528;2023-02-28T00:33:01;41.42;;;15.30;;
73359;SDS011;63092;43.582;19.528;2023-02-28T00:35:27;26.98;;;14.10;;
73359;SDS011;63092;43.582;19.528;2023-02-28T00:37:52;32.10;;;15.45;;
73359;SDS011;63092;43.582;19.528;2023-02-28T00:40:18;29.98;;;15.60;;
73359;SDS011;63092;43.582;19.528;2023-02-28T00:42:44;27.45;;;15.05;;
73359;SDS011;63092;43.582;19.528;2023-02-28T00:45:09;25.55;;;14.73;;
73359;SDS011;63092;43.582;19.528;2023-02-28T00:47:35;21.50;;;11.32;;
73359;SDS011;63092;43.582;19.528;2023-02-28T00:50:01;26.67;;;11.77;;
73359;SDS011;63092;43.582;19.528;2023-02-28T00:52:28;23.20;;;12.05;;
73359;SDS011;63092;43.582;19.528;2023-02-28T00:54:54;43.47;;;19.00;;
73359;SDS011;63092;43.582;19.528;2023-02-28T00:57:19;18.52;;;9.00;;
73359;SDS011;63092;43.582;19.528;2023-02-28T00:59:45;20.33;;;10.15;;
73359;SDS011;63092;43.582;19.528;2023-02-28T01:02:11;23.25;;;10.35;;
73359;SDS011;63092;43.582;19.528;2023-02-28T01:04:36;21.50;;;10.35;;
73359;SDS011;63092;43.582;19.528;2023-02-28T01:07:02;22.70;;;9.32;;
73359;SDS011;63092;43.582;19.528;2023-02-28T01:09:28;18.80;;;9.43;;
73359;SDS011;63092;43.582;19.528;2023-02-28T01:11:54;17.42;;;8.38;;
73359;SDS011;63092;43.582;19.528;2023-02-28T01:14:20;19.23;;;9.00;;
73359;SDS011;63092;43.582;19.528;2023-02-28T01:16:45;18.42;;;9.20;;
73359;SDS011;63092;43.582;19.528;2023-02-28T01:19:11;19.65;;;8.43;;
73359;SDS011;63092;43.582;19.528;2023-02-28T01:21:37;17.65;;;9.20;;
73359;SDS011;63092;43.582;19.528;2023-02-28T01:24:03;16.90;;;8.43;;
73359;SDS011;63092;43.582;19.528;2023-02-28T01:26:30;52.03;;;23.65;;
73359;SDS011;63092;43.582;19.528;2023-02-28T01:28:56;36.08;;;15.30;;
73359;SDS011;63092;43.582;19.528;2023-02-28T01:31:22;34.60;;;15.15;;
73359;SDS011;63092;43.582;19.528;2023-02-28T01:33:48;25.85;;;13.35;;
73359;SDS011;63092;43.582;19.528;2023-02-28T01:36:18;32.88;;;15.95;;
73359;SDS011;63092;43.582;19.528;2023-02-28T01:38:45;21.85;;;11.18;;
73359;SDS011;63092;43.582;19.528;2023-02-28T01:41:16;19.15;;;9.57;;
73359;SDS011;63092;43.582;19.528;2023-02-28T01:46:13;20.30;;;10.38;;
73359;SDS011;63092;43.582;19.528;2023-02-28T01:48:44;19.05;;;9.25;;
73359;SDS011;63092;43.582;19.528;2023-02-28T01:51:13;18.98;;;9.25;;
73359;SDS011;63092;43.582;19.528;2023-02-28T01:53:43;21.58;;;9.32;;
73359;SDS011;63092;43.582;19.528;2023-02-28T01:56:13;15.75;;;8.45;;
73359;SDS011;63092;43.582;19.528;2023-02-28T01:58:48;19.42;;;10.00;;
73359;SDS011;63092;43.582;19.528;2023-02-28T02:01:16;18.15;;;9.55;;
73359;SDS011;63092;43.582;19.528;2023-02-28T02:03:47;23.38;;;10.15;;
73359;SDS011;63092;43.582;19.528;2023-02-28T02:06:20;17.52;;;8.15;;
73359;SDS011;63092;43.582;19.528;2023-02-28T02:09:00;19.13;;;9.23;;
73359;SDS011;63092;43.582;19.528;2023-02-28T02:11:27;19.27;;;10.18;;
73359;SDS011;63092;43.582;19.528;2023-02-28T02:25:45;33.53;;;14.27;;
73359;SDS011;63092;43.582;19.528;2023-02-28T02:34:16;22.55;;;10.55;;
73359;SDS011;63092;43.582;19.528;2023-02-28T02:40:19;22.52;;;10.35;;
73359;SDS011;63092;43.582;19.528;2023-02-28T02:42:49;23.92;;;10.10;;
73359;SDS011;63092;43.582;19.528;2023-02-28T02:45:21;24.52;;;11.13;;
73359;SDS011;63092;43.582;19.528;2023-02-28T02:48:08;23.30;;;11.05;;
73359;SDS011;63092;43.582;19.528;2023-02-28T02:50:38;22.92;;;10.23;;
73359;SDS011;63092;43.582;19.528;2023-02-28T02:53:08;25.60;;;11.15;;
73359;SDS011;63092;43.582;19.528;2023-02-28T02:55:37;25.20;;;10.75;;
73359;SDS011;63092;43.582;19.528;2023-02-28T02:58:08;23.02;;;10.93;;
73359;SDS011;63092;43.582;19.528;2023-02-28T03:00:45;21.10;;;10.00;;
73359;SDS011;63092;43.582;19.528;2023-02-28T03:03:15;26.17;;;11.23;;
73359;SDS011;63092;43.582;19.528;2023-02-28T03:05:46;24.02;;;11.13;;
73359;SDS011;63092;43.582;19.528;2023-02-28T03:08:15;23.02;;;10.65;;
73359;SDS011;63092;43.582;19.528;2023-02-28T03:10:42;24.50;;;10.68;;
73359;SDS011;63092;43.582;19.528;2023-02-28T03:18:15;25.27;;;11.10;;
73359;SDS011;63092;43.582;19.528;2023-02-28T03:21:42;23.90;;;10.65;;
73359;SDS011;63092;43.582;19.528;2023-02-28T03:23:46;25.38;;;10.57;;
73359;SDS011;63092;43.582;19.528;2023-02-28T03:26:24;22.85;;;10.23;;
73359;SDS011;63092;43.582;19.528;2023-02-28T03:31:44;20.15;;;9.43;;
73359;SDS011;63092;43.582;19.528;2023-02-28T03:34:15;23.90;;;9.52;;
73359;SDS011;63092;43.582;19.528;2023-02-28T03:36:48;20.17;;;9.13;;
73359;SDS011;63092;43.582;19.528;2023-02-28T03:39:19;22.33;;;9.68;;
73359;SDS011;63092;43.582;19.528;2023-02-28T03:41:56;21.40;;;9.50;;
73359;SDS011;63092;43.582;19.528;2023-02-28T03:44:26;21.10;;;10.05;;
73359;SDS011;63092;43.582;19.528;2023-02-28T03:49:37;20.70;;;9.70;;
73359;SDS011;63092;43.582;19.528;2023-02-28T03:52:18;20.38;;;9.20;;
73359;SDS011;63092;43.582;19.528;2023-02-28T03:54:51;20.73;;;8.90;;
73359;SDS011;63092;43.582;19.528;2023-02-28T04:00:20;19.60;;;8.90;;
73359;SDS011;63092;43.582;19.528;2023-02-28T04:02:53;22.00;;;9.10;;
73359;SDS011;63092;43.582;19.528;2023-02-28T04:05:20;23.08;;;10.45;;
73359;SDS011;63092;43.582;19.528;2023-02-28T04:07:46;19.02;;;8.63;;
73359;SDS011;63092;43.582;19.528;2023-02-28T04:10:12;20.35;;;9.18;;
73359;SDS011;63092;43.582;19.528;2023-02-28T04:12:38;20.98;;;9.07;;
73359;SDS011;63092;43.582;19.528;2023-02-28T04:15:04;22.40;;;10.40;;
73359;SDS011;63092;43.582;19.528;2023-02-28T04:17:30;22.48;;;10.50;;
73359;SDS011;63092;43.582;19.528;2023-02-28T04:19:56;23.48;;;11.35;;
73359;SDS011;63092;43.582;19.528;2023-02-28T04:22:22;48.95;;;21.35;;
73359;SDS011;63092;43.582;19.528;2023-02-28T04:24:51;32.70;;;12.50;;
73359;SDS011;63092;43.582;19.528;2023-02-28T04:27:19;38.97;;;17.27;;
73359;SDS011;63092;43.582;19.528;2023-02-28T04:29:46;77.45;;;27.52;;
73359;SDS011;63092;43.582;19.528;2023-02-28T04:32:11;55.63;;;21.45;;
73359;SDS011;63092;43.582;19.528;2023-02-28T04:34:37;51.90;;;20.20;;
73359;SDS011;63092;43.582;19.528;2023-02-28T04:37:03;27.92;;;12.75;;
73359;SDS011;63092;43.582;19.528;2023-02-28T04:39:30;40.60;;;16.92;;
73359;SDS011;63092;43.582;19.528;2023-02-28T04:41:55;99.68;;;33.65;;
73359;SDS011;63092;43.582;19.528;2023-02-28T04:44:21;37.58;;;15.40;;
73359;SDS011;63092;43.582;19.528;2023-02-28T04:46:47;36.38;;;17.27;;
73359;SDS011;63092;43.582;19.528;2023-02-28T04:49:14;23.42;;;11.75;;
73359;SDS011;63092;43.582;19.528;2023-02-28T04:51:40;29.63;;;13.73;;
73359;SDS011;63092;43.582;19.528;2023-02-28T04:54:07;24.60;;;11.32;;
73359;SDS011;63092;43.582;19.528;2023-02-28T04:56:32;34.38;;;15.43;;
73359;SDS011;63092;43.582;19.528;2023-02-28T04:58:58;20.85;;;10.70;;
73359;SDS011;63092;43.582;19.528;2023-02-28T05:01:28;20.65;;;10.98;;
73359;SDS011;63092;43.582;19.528;2023-02-28T05:03:56;22.92;;;11.48;;
73359;SDS011;63092;43.582;19.528;2023-02-28T05:06:24;21.17;;;9.85;;
73359;SDS011;63092;43.582;19.528;2023-02-28T05:08:51;22.55;;;12.18;;
73359;SDS011;63092;43.582;19.528;2023-02-28T05:11:28;23.13;;;11.25;;
73359;SDS011;63092;43.582;19.528;2023-02-28T05:13:59;24.65;;;12.80;;
73359;SDS011;63092;43.582;19.528;2023-02-28T05:16:29;25.73;;;13.43;;
73359;SDS011;63092;43.582;19.528;2023-02-28T05:18:55;31.08;;;16.55;;
73359;SDS011;63092;43.582;19.528;2023-02-28T05:23:57;25.25;;;12.32;;
73359;SDS011;63092;43.582;19.528;2023-02-28T05:26:25;29.58;;;15.77;;
73359;SDS011;63092;43.582;19.528;2023-02-28T05:28:51;34.90;;;19.25;;
73359;SDS011;63092;43.582;19.528;2023-02-28T05:31:17;30.08;;;16.25;;
73359;SDS011;63092;43.582;19.528;2023-02-28T05:33:43;34.53;;;16.58;;
73359;SDS011;63092;43.582;19.528;2023-02-28T05:36:09;29.08;;;14.55;;
73359;SDS011;63092;43.582;19.528;2023-02-28T05:38:34;33.75;;;16.17;;
73359;SDS011;63092;43.582;19.528;2023-02-28T05:41:04;36.47;;;18.98;;
73359;SDS011;63092;43.582;19.528;2023-02-28T05:43:30;35.10;;;17.30;;
73359;SDS011;63092;43.582;19.528;2023-02-28T05:45:56;54.72;;;25.80;;
73359;SDS011;63092;43.582;19.528;2023-02-28T05:48:21;44.90;;;19.27;;
73359;SDS011;63092;43.582;19.528;2023-02-28T05:50:47;89.00;;;33.45;;
73359;SDS011;63092;43.582;19.528;2023-02-28T05:53:13;80.10;;;31.35;;
73359;SDS011;63092;43.582;19.528;2023-02-28T05:55:38;58.10;;;24.80;;
73359;SDS011;63092;43.582;19.528;2023-02-28T05:58:06;31.15;;;15.57;;
73359;SDS011;63092;43.582;19.528;2023-02-28T06:00:31;54.33;;;26.20;;
73359;SDS011;63092;43.582;19.528;2023-02-28T06:02:57;78.38;;;39.80;;
73359;SDS011;63092;43.582;19.528;2023-02-28T06:05:26;58.58;;;31.85;;
73359;SDS011;63092;43.582;19.528;2023-02-28T06:07:52;39.60;;;17.58;;
73359;SDS011;63092;43.582;19.528;2023-02-28T06:10:18;77.85;;;38.67;;
73359;SDS011;63092;43.582;19.528;2023-02-28T06:12:44;42.92;;;20.65;;
73359;SDS011;63092;43.582;19.528;2023-02-28T06:15:14;84.00;;;34.40;;
73359;SDS011;63092;43.582;19.528;2023-02-28T06:17:42;103.13;;;47.08;;
73359;SDS011;63092;43.582;19.528;2023-02-28T06:20:09;64.25;;;32.28;;
73359;SDS011;63092;43.582;19.528;2023-02-28T06:22:37;78.97;;;37.20;;
73359;SDS011;63092;43.582;19.528;2023-02-28T06:25:04;48.03;;;23.27;;
73359;SDS011;63092;43.582;19.528;2023-02-28T06:27:32;84.10;;;37.97;;
73359;SDS011;63092;43.582;19.528;2023-02-28T06:29:58;49.67;;;25.55;;
73359;SDS011;63092;43.582;19.528;2023-02-28T06:32:24;42.58;;;23.45;;
73359;SDS011;63092;43.582;19.528;2023-02-28T06:34:49;38.00;;;21.10;;
73359;SDS011;63092;43.582;19.528;2023-02-28T06:37:16;49.45;;;24.75;;
73359;SDS011;63092;43.582;19.528;2023-02-28T06:39:42;24.50;;;13.80;;
73359;SDS011;63092;43.582;19.528;2023-02-28T06:42:08;28.02;;;12.77;;
73359;SDS011;63092;43.582;19.528;2023-02-28T06:44:34;31.15;;;16.73;;
73359;SDS011;63092;43.582;19.528;2023-02-28T06:47:03;22.00;;;12.23;;
73359;SDS011;63092;43.582;19.528;2023-02-28T06:49:33;29.50;;;14.68;;
73359;SDS011;63092;43.582;19.528;2023-02-28T06:52:00;35.17;;;18.30;;
73359;SDS011;63092;43.582;19.528;2023-02-28T06:54:26;35.85;;;18.52;;
73359;SDS011;63092;43.582;19.528;2023-02-28T06:56:52;41.33;;;21.90;;
73359;SDS011;63092;43.582;19.528;2023-02-28T06:59:19;24.27;;;12.65;;
73359;SDS011;63092;43.582;19.528;2023-02-28T07:01:48;20.13;;;10.20;;
73359;SDS011;63092;43.582;19.528;2023-02-28T07:04:13;35.10;;;16.10;;
73359;SDS011;63092;43.582;19.528;2023-02-28T07:06:39;42.55;;;21.05;;
73359;SDS011;63092;43.582;19.528;2023-02-28T07:09:05;33.88;;;19.42;;
73359;SDS011;63092;43.582;19.528;2023-02-28T07:11:31;24.35;;;13.43;;
73359;SDS011;63092;43.582;19.528;2023-02-28T07:13:57;28.25;;;14.05;;
73359;SDS011;63092;43.582;19.528;2023-02-28T07:16:23;31.45;;;14.65;;
73359;SDS011;63092;43.582;19.528;2023-02-28T07:18:51;38.40;;;21.35;;
73359;SDS011;63092;43.582;19.528;2023-02-28T07:21:18;44.38;;;23.20;;
73359;SDS011;63092;43.582;19.528;2023-02-28T07:23:43;34.88;;;19.13;;
73359;SDS011;63092;43.582;19.528;2023-02-28T07:26:13;37.85;;;18.85;;
73359;SDS011;63092;43.582;19.528;2023-02-28T07:28:42;40.15;;;20.00;;
73359;SDS011;63092;43.582;19.528;2023-02-28T07:31:09;42.25;;;21.35;;
73359;SDS011;63092;43.582;19.528;2023-02-28T07:33:36;51.03;;;24.58;;
73359;SDS011;63092;43.582;19.528;2023-02-28T07:36:06;48.30;;;22.85;;
73359;SDS011;63092;43.582;19.528;2023-02-28T07:38:40;88.55;;;51.50;;
73359;SDS011;63092;43.582;19.528;2023-02-28T07:41:10;91.60;;;41.03;;
73359;SDS011;63092;43.582;19.528;2023-02-28T07:43:36;61.75;;;29.17;;
73359;SDS011;63092;43.582;19.528;2023-02-28T07:46:06;48.95;;;25.90;;
73359;SDS011;63092;43.582;19.528;2023-02-28T07:48:33;61.03;;;31.83;;
73359;SDS011;63092;43.582;19.528;2023-02-28T07:50:59;35.63;;;19.42;;
73359;SDS011;63092;43.582;19.528;2023-02-28T07:53:25;38.50;;;19.25;;
73359;SDS011;63092;43.582;19.528;2023-02-28T07:55:55;44.88;;;23.27;;
73359;SDS011;63092;43.582;19.528;2023-02-28T07:58:22;49.15;;;26.52;;
73359;SDS011;63092;43.582;19.528;2023-02-28T08:00:48;44.60;;;25.33;;
73359;SDS011;63092;43.582;19.528;2023-02-28T08:03:14;43.67;;;22.90;;
73359;SDS011;63092;43.582;19.528;2023-02-28T08:05:40;27.50;;;15.10;;
73359;SDS011;63092;43.582;19.528;2023-02-28T08:08:07;25.73;;;12.93;;
73359;SDS011;63092;43.582;19.528;2023-02-28T08:10:33;27.40;;;14.18;;
73359;SDS011;63092;43.582;19.528;2023-02-28T08:12:58;22.00;;;11.77;;
73359;SDS011;63092;43.582;19.528;2023-02-28T08:15:25;25.27;;;14.18;;
73359;SDS011;63092;43.582;19.528;2023-02-28T08:17:50;24.23;;;12.70;;
73359;SDS011;63092;43.582;19.528;2023-02-28T08:20:16;33.67;;;17.50;;
73359;SDS011;63092;43.582;19.528;2023-02-28T08:22:41;27.75;;;15.95;;
73359;SDS011;63092;43.582;19.528;2023-02-28T08:25:08;26.08;;;14.65;;
73359;SDS011;63092;43.582;19.528;2023-02-28T08:27:34;25.42;;;14.77;;
73359;SDS011;63092;43.582;19.528;2023-02-28T08:30:00;54.22;;;25.92;;
73359;SDS011;63092;43.582;19.528;2023-02-28T08:32:26;40.08;;;21.80;;
73359;SDS011;63092;43.582;19.528;2023-02-28T08:34:51;34.63;;;20.35;;
73359;SDS011;63092;43.582;19.528;2023-02-28T08:37:17;35.83;;;20.88;;
73359;SDS011;63092;43.582;19.528;2023-02-28T08:39:43;28.45;;;16.20;;
73359;SDS011;63092;43.582;19.528;2023-02-28T08:42:08;33.17;;;17.58;;
73359;SDS011;63092;43.582;19.528;2023-02-28T08:44:34;36.70;;;18.67;;
73359;SDS011;63092;43.582;19.528;2023-02-28T08:47:00;37.50;;;18.98;;
73359;SDS011;63092;43.582;19.528;2023-02-28T08:49:25;39.63;;;22.10;;
73359;SDS011;63092;43.582;19.528;2023-02-28T08:51:51;32.28;;;19.08;;
73359;SDS011;63092;43.582;19.528;2023-02-28T08:54:17;39.45;;;21.67;;
73359;SDS011;63092;43.582;19.528;2023-02-28T08:56:44;31.25;;;17.00;;
73359;SDS011;63092;43.582;19.528;2023-02-28T08:59:12;47.00;;;26.10;;
73359;SDS011;63092;43.582;19.528;2023-02-28T09:01:38;36.55;;;22.08;;
73359;SDS011;63092;43.582;19.528;2023-02-28T09:04:04;35.25;;;18.38;;
73359;SDS011;63092;43.582;19.528;2023-02-28T09:06:32;35.42;;;16.65;;
73359;SDS011;63092;43.582;19.528;2023-02-28T09:08:57;27.90;;;15.02;;
73359;SDS011;63092;43.582;19.528;2023-02-28T09:11:24;33.05;;;16.85;;
73359;SDS011;63092;43.582;19.528;2023-02-28T09:13:50;31.08;;;15.40;;
73359;SDS011;63092;43.582;19.528;2023-02-28T09:16:16;25.98;;;13.68;;
73359;SDS011;63092;43.582;19.528;2023-02-28T09:18:42;25.20;;;14.63;;
73359;SDS011;63092;43.582;19.528;2023-02-28T09:21:10;28.70;;;15.32;;
73359;SDS011;63092;43.582;19.528;2023-02-28T09:23:39;36.70;;;19.25;;
73359;SDS011;63092;43.582;19.528;2023-02-28T09:28:38;36.33;;;19.58;;
73359;SDS011;63092;43.582;19.528;2023-02-28T09:31:04;32.15;;;18.83;;
73359;SDS011;63092;43.582;19.528;2023-02-28T09:33:29;25.20;;;15.68;;
73359;SDS011;63092;43.582;19.528;2023-02-28T09:35:59;27.77;;;15.90;;
73359;SDS011;63092;43.582;19.528;2023-02-28T09:38:25;34.20;;;18.25;;
73359;SDS011;63092;43.582;19.528;2023-02-28T09:40:54;29.60;;;14.95;;
73359;SDS011;63092;43.582;19.528;2023-02-28T09:43:27;22.80;;;12.45;;
73359;SDS011;63092;43.582;19.528;2023-02-28T09:48:31;30.08;;;19.80;;
73359;SDS011;63092;43.582;19.528;2023-02-28T09:52:03;26.27;;;14.25;;
73359;SDS011;63092;43.582;19.528;2023-02-28T09:54:03;24.63;;;12.75;;
73359;SDS011;63092;43.582;19.528;2023-02-28T09:56:42;28.35;;;14.00;;
73359;SDS011;63092;43.582;19.528;2023-02-28T09:59:13;34.90;;;18.52;;
73359;SDS011;63092;43.582;19.528;2023-02-28T10:10:20;25.50;;;14.13;;
73359;SDS011;63092;43.582;19.528;2023-02-28T10:12:52;22.95;;;12.38;;
73359;SDS011;63092;43.582;19.528;2023-02-28T10:15:20;26.88;;;13.55;;
73359;SDS011;63092;43.582;19.528;2023-02-28T10:20:19;27.05;;;15.00;;
73359;SDS011;63092;43.582;19.528;2023-02-28T10:25:27;26.10;;;14.60;;
73359;SDS011;63092;43.582;19.528;2023-02-28T10:28:13;26.98;;;14.77;;
73359;SDS011;63092;43.582;19.528;2023-02-28T10:30:42;34.72;;;19.90;;
73359;SDS011;63092;43.582;19.528;2023-02-28T10:33:17;26.25;;;14.10;;
73359;SDS011;63092;43.582;19.528;2023-02-28T10:38:18;31.55;;;14.88;;
73359;SDS011;63092;43.582;19.528;2023-02-28T10:40:51;28.58;;;15.50;;
73359;SDS011;63092;43.582;19.528;2023-02-28T10:43:27;36.00;;;18.50;;
73359;SDS011;63092;43.582;19.528;2023-02-28T10:48:30;28.33;;;15.48;;
73359;SDS011;63092;43.582;19.528;2023-02-28T10:51:08;36.53;;;19.88;;
73359;SDS011;63092;43.582;19.528;2023-02-28T10:53:54;34.85;;;19.25;;
73359;SDS011;63092;43.582;19.528;2023-02-28T10:56:21;32.35;;;16.70;;
73359;SDS011;63092;43.582;19.528;2023-02-28T11:01:39;29.88;;;16.38;;
73359;SDS011;63092;43.582;19.528;2023-02-28T11:07:02;30.65;;;15.60;;
73359;SDS011;63092;43.582;19.528;2023-02-28T11:09:39;36.33;;;20.80;;
73359;SDS011;63092;43.582;19.528;2023-02-28T11:12:07;44.80;;;24.70;;
73359;SDS011;63092;43.582;19.528;2023-02-28T11:14:51;38.58;;;21.42;;
73359;SDS011;63092;43.582;19.528;2023-02-28T11:17:28;35.08;;;17.08;;
73359;SDS011;63092;43.582;19.528;2023-02-28T11:20:01;30.20;;;17.38;;
73359;SDS011;63092;43.582;19.528;2023-02-28T11:22:32;30.20;;;16.88;;
73359;SDS011;63092;43.582;19.528;2023-02-28T11:25:07;28.73;;;14.98;;
73359;SDS011;63092;43.582;19.528;2023-02-28T11:30:22;29.38;;;15.30;;
73359;SDS011;63092;43.582;19.528;2023-02-28T11:32:48;34.42;;;18.80;;
73359;SDS011;63092;43.582;19.528;2023-02-28T11:35:16;34.38;;;17.70;;
73359;SDS011;63092;43.582;19.528;2023-02-28T11:37:59;41.45;;;24.23;;
73359;SDS011;63092;43.582;19.528;2023-02-28T11:46:08;35.53;;;18.23;;
73359;SDS011;63092;43.582;19.528;2023-02-28T11:51:49;40.42;;;21.42;;
73359;SDS011;63092;43.582;19.528;2023-02-28T11:54:27;34.25;;;17.27;;
73359;SDS011;63092;43.582;19.528;2023-02-28T12:14:03;28.20;;;14.60;;
73359;SDS011;63092;43.582;19.528;2023-02-28T12:16:40;30.23;;;15.68;;
73359;SDS011;63092;43.582;19.528;2023-02-28T12:27:38;45.28;;;22.25;;
73359;SDS011;63092;43.582;19.528;2023-02-28T12:33:01;48.05;;;24.05;;
73359;SDS011;63092;43.582;19.528;2023-02-28T12:38:26;40.83;;;18.95;;
73359;SDS011;63092;43.582;19.528;2023-02-28T12:41:00;50.70;;;22.65;;
73359;SDS011;63092;43.582;19.528;2023-02-28T12:43:33;73.68;;;33.80;;
73359;SDS011;63092;43.582;19.528;2023-02-28T12:46:03;38.10;;;21.08;;
73359;SDS011;63092;43.582;19.528;2023-02-28T12:48:39;61.15;;;25.33;;
73359;SDS011;63092;43.582;19.528;2023-02-28T12:51:08;70.45;;;31.23;;
73359;SDS011;63092;43.582;19.528;2023-02-28T13:04:40;38.67;;;20.55;;
73359;SDS011;63092;43.582;19.528;2023-02-28T13:09:51;43.25;;;21.10;;
73359;SDS011;63092;43.582;19.528;2023-02-28T13:12:20;36.40;;;17.92;;
73359;SDS011;63092;43.582;19.528;2023-02-28T13:14:48;35.30;;;15.23;;
73359;SDS011;63092;43.582;19.528;2023-02-28T13:17:18;34.42;;;17.65;;
73359;SDS011;63092;43.582;19.528;2023-02-28T13:24:46;39.92;;;21.48;;
73359;SDS011;63092;43.582;19.528;2023-02-28T13:27:35;40.17;;;21.25;;
73359;SDS011;63092;43.582;19.528;2023-02-28T13:30:58;45.28;;;21.95;;
73359;SDS011;63092;43.582;19.528;2023-02-28T13:33:19;75.95;;;30.75;;
73359;SDS011;63092;43.582;19.528;2023-02-28T13:35:50;213.88;;;78.88;;
73359;SDS011;63092;43.582;19.528;2023-02-28T13:38:47;63.17;;;31.60;;
73359;SDS011;63092;43.582;19.528;2023-02-28T13:46:28;37.92;;;19.75;;
73359;SDS011;63092;43.582;19.528;2023-02-28T13:48:54;40.90;;;22.40;;
73359;SDS011;63092;43.582;19.528;2023-02-28T13:54:06;48.95;;;25.52;;
73359;SDS011;63092;43.582;19.528;2023-02-28T14:02:43;41.22;;;21.13;;
73359;SDS011;63092;43.582;19.528;2023-02-28T14:05:31;42.08;;;19.73;;
73359;SDS011;63092;43.582;19.528;2023-02-28T14:07:59;40.28;;;20.08;;
73359;SDS011;63092;43.582;19.528;2023-02-28T14:10:32;39.55;;;18.52;;
73359;SDS011;63092;43.582;19.528;2023-02-28T14:13:36;35.42;;;17.02;;
73359;SDS011;63092;43.582;19.528;2023-02-28T14:16:13;41.92;;;20.83;;
73359;SDS011;63092;43.582;19.528;2023-02-28T14:18:57;52.63;;;25.67;;
73359;SDS011;63092;43.582;19.528;2023-02-28T14:21:33;39.67;;;19.65;;
73359;SDS011;63092;43.582;19.528;2023-02-28T14:37:36;55.85;;;25.88;;
73359;SDS011;63092;43.582;19.528;2023-02-28T14:40:04;55.78;;;27.92;;
73359;SDS011;63092;43.582;19.528;2023-02-28T14:42:46;110.65;;;46.33;;
73359;SDS011;63092;43.582;19.528;2023-02-28T14:45:20;56.13;;;28.05;;
73359;SDS011;63092;43.582;19.528;2023-02-28T14:47:47;59.58;;;31.00;;
73359;SDS011;63092;43.582;19.528;2023-02-28T14:50:22;51.50;;;24.98;;
73359;SDS011;63092;43.582;19.528;2023-02-28T14:52:52;45.15;;;22.15;;
73359;SDS011;63092;43.582;19.528;2023-02-28T14:55:20;55.92;;;28.25;;
73359;SDS011;63092;43.582;19.528;2023-02-28T14:58:00;62.40;;;30.33;;
73359;SDS011;63092;43.582;19.528;2023-02-28T15:00:35;78.68;;;34.25;;
73359;SDS011;63092;43.582;19.528;2023-02-28T15:03:22;107.50;;;47.88;;
73359;SDS011;63092;43.582;19.528;2023-02-28T15:05:56;79.65;;;37.03;;
73359;SDS011;63092;43.582;19.528;2023-02-28T15:08:27;79.45;;;37.67;;
73359;SDS011;63092;43.582;19.528;2023-02-28T15:13:19;70.85;;;30.92;;
73359;SDS011;63092;43.582;19.528;2023-02-28T15:15:51;78.30;;;36.40;;
73359;SDS011;63092;43.582;19.528;2023-02-28T15:18:22;66.70;;;28.80;;
73359;SDS011;63092;43.582;19.528;2023-02-28T15:21:02;56.75;;;26.25;;
73359;SDS011;63092;43.582;19.528;2023-02-28T15:23:51;60.20;;;31.75;;
73359;SDS011;63092;43.582;19.528;2023-02-28T15:26:27;44.25;;;22.58;;
73359;SDS011;63092;43.582;19.528;2023-02-28T15:29:01;62.20;;;27.60;;
73359;SDS011;63092;43.582;19.528;2023-02-28T15:31:34;50.40;;;24.00;;
73359;SDS011;63092;43.582;19.528;2023-02-28T15:34:06;75.47;;;34.38;;
73359;SDS011;63092;43.582;19.528;2023-02-28T15:36:42;67.88;;;30.45;;
73359;SDS011;63092;43.582;19.528;2023-02-28T15:39:22;76.22;;;37.08;;
73359;SDS011;63092;43.582;19.528;2023-02-28T15:41:52;72.13;;;36.40;;
73359;SDS011;63092;43.582;19.528;2023-02-28T15:44:38;72.30;;;36.25;;
73359;SDS011;63092;43.582;19.528;2023-02-28T15:47:13;103.35;;;45.65;;
73359;SDS011;63092;43.582;19.528;2023-02-28T15:49:49;58.30;;;29.75;;
73359;SDS011;63092;43.582;19.528;2023-02-28T15:52:24;52.03;;;25.17;;
73359;SDS011;63092;43.582;19.528;2023-02-28T15:55:02;64.47;;;28.23;;
73359;SDS011;63092;43.582;19.528;2023-02-28T15:57:43;61.30;;;27.92;;
73359;SDS011;63092;43.582;19.528;2023-02-28T16:00:11;102.55;;;45.30;;
73359;SDS011;63092;43.582;19.528;2023-02-28T16:02:40;70.38;;;32.50;;
73359;SDS011;63092;43.582;19.528;2023-02-28T16:07:31;89.65;;;42.28;;
73359;SDS011;63092;43.582;19.528;2023-02-28T16:09:58;69.95;;;33.75;;
73359;SDS011;63092;43.582;19.528;2023-02-28T16:12:25;62.35;;;33.67;;
73359;SDS011;63092;43.582;19.528;2023-02-28T16:14:53;95.57;;;42.77;;
73359;SDS011;63092;43.582;19.528;2023-02-28T16:17:22;103.53;;;43.20;;
73359;SDS011;63092;43.582;19.528;2023-02-28T16:19:50;85.43;;;38.13;;
73359;SDS011;63092;43.582;19.528;2023-02-28T16:22:16;102.65;;;44.90;;
73359;SDS011;63092;43.582;19.528;2023-02-28T16:24:42;80.93;;;38.10;;
73359;SDS011;63092;43.582;19.528;2023-02-28T16:27:10;77.90;;;37.25;;
73359;SDS011;63092;43.582;19.528;2023-02-28T16:29:46;59.08;;;28.00;;
73359;SDS011;63092;43.582;19.528;2023-02-28T16:32:14;102.95;;;43.92;;
73359;SDS011;63092;43.582;19.528;2023-02-28T16:34:41;58.13;;;28.13;;
73359;SDS011;63092;43.582;19.528;2023-02-28T16:37:12;73.55;;;35.28;;
73359;SDS011;63092;43.582;19.528;2023-02-28T16:39:39;74.30;;;35.30;;
73359;SDS011;63092;43.582;19.528;2023-02-28T16:42:08;70.55;;;34.92;;
73359;SDS011;63092;43.582;19.528;2023-02-28T16:44:50;59.95;;;29.40;;
73359;SDS011;63092;43.582;19.528;2023-02-28T16:47:17;57.92;;;29.27;;
73359;SDS011;63092;43.582;19.528;2023-02-28T16:49:43;70.82;;;35.30;;
73359;SDS011;63092;43.582;19.528;2023-02-28T16:52:09;84.95;;;38.63;;
73359;SDS011;63092;43.582;19.528;2023-02-28T16:54:36;79.55;;;38.47;;
73359;SDS011;63092;43.582;19.528;2023-02-28T16:57:04;99.25;;;49.13;;
73359;SDS011;63092;43.582;19.528;2023-02-28T16:59:31;105.75;;;51.72;;
73359;SDS011;63092;43.582;19.528;2023-02-28T17:01:57;89.00;;;44.50;;
73359;SDS011;63092;43.582;19.528;2023-02-28T17:04:24;83.85;;;41.40;;
73359;SDS011;63092;43.582;19.528;2023-02-28T17:06:51;95.80;;;45.85;;
73359;SDS011;63092;43.582;19.528;2023-02-28T17:09:18;62.38;;;32.60;;